createdAt,value
2022-10-20T00:01:10.659Z,20.08
2022-10-20T00:03:38.627Z,21.13
2022-10-20T00:06:13.511Z,20.85
2022-10-20T00:08:41.838Z,21.90
2022-10-20T00:11:09.797Z,21.58
2022-10-20T00:13:37.985Z,21.20
2022-10-20T00:16:05.914Z,22.95
2022-10-20T00:18:33.470Z,21.77
2022-10-20T00:21:01.045Z,22.08
2022-10-20T00:23:28.615Z,22.27
2022-10-20T00:26:14.584Z,23.42
2022-10-20T00:28:42.261Z,22.75
2022-10-20T00:31:10.246Z,24.00
2022-10-20T00:33:37.778Z,23.83
2022-10-20T00:36:06.999Z,24.13
2022-10-20T00:38:35.204Z,24.40
2022-10-20T00:41:06.032Z,24.88
2022-10-20T00:43:42.653Z,24.70
2022-10-20T00:46:11.732Z,25.63
2022-10-20T00:48:39.401Z,25.67
2022-10-20T00:51:07.347Z,25.60
2022-10-20T00:53:35.316Z,25.13
2022-10-20T00:56:02.952Z,26.02
2022-10-20T00:58:30.511Z,25.90
2022-10-20T01:01:00.047Z,26.35
2022-10-20T01:03:46.284Z,24.55
2022-10-20T01:06:14.718Z,25.98
2022-10-20T01:08:42.378Z,25.98
2022-10-20T01:11:09.901Z,25.85
2022-10-20T01:13:46.291Z,26.05
2022-10-20T01:16:21.113Z,25.75
2022-10-20T01:19:15.009Z,24.83
2022-10-20T01:21:50.774Z,24.55
2022-10-20T01:24:37.181Z,25.02
2022-10-20T01:27:13.752Z,25.20
2022-10-20T01:29:44.800Z,25.23
2022-10-20T01:32:19.981Z,25.63
2022-10-20T01:35:06.684Z,24.50
2022-10-20T01:37:48.352Z,25.17
2022-10-20T01:40:28.896Z,23.95
2022-10-20T01:42:59.060Z,24.05
2022-10-20T01:45:28.527Z,23.77
2022-10-20T01:47:57.611Z,23.80
2022-10-20T01:50:25.715Z,23.33
2022-10-20T01:53:00.004Z,23.70
2022-10-20T01:55:27.604Z,24.42
2022-10-20T01:58:19.028Z,23.75
2022-10-20T02:00:47.469Z,24.05
2022-10-20T02:03:38.291Z,23.20
2022-10-20T02:06:08.587Z,24.17
2022-10-20T02:08:59.853Z,22.98
2022-10-20T02:12:02.997Z,23.23
2022-10-20T02:14:33.081Z,24.33
2022-10-20T02:17:03.266Z,24.92
2022-10-20T02:19:34.248Z,24.65
2022-10-20T02:22:02.221Z,24.87
2022-10-20T02:24:32.555Z,25.45
2022-10-20T02:27:01.366Z,25.70
2022-10-20T02:29:30.733Z,25.27
2022-10-20T02:31:58.825Z,27.02
2022-10-20T02:34:26.741Z,24.73
2022-10-20T02:36:58.351Z,25.00
2022-10-20T02:39:26.140Z,24.27
2022-10-20T02:41:54.525Z,23.55
2022-10-20T02:44:22.866Z,25.52
2022-10-20T02:46:50.475Z,24.27
2022-10-20T02:49:18.012Z,24.20
2022-10-20T02:51:45.590Z,23.90
2022-10-20T02:54:13.105Z,25.00
2022-10-20T02:56:40.656Z,25.02
2022-10-20T02:59:08.260Z,23.88
2022-10-20T03:01:35.856Z,24.63
2022-10-20T03:04:03.413Z,24.83
2022-10-20T03:06:30.958Z,25.08
2022-10-20T03:08:58.523Z,24.02
2022-10-20T03:11:26.174Z,23.90
2022-10-20T03:13:53.697Z,23.35
2022-10-20T03:16:21.244Z,24.05
2022-10-20T03:18:48.881Z,23.10
2022-10-20T03:21:16.415Z,21.92
2022-10-20T03:23:43.955Z,22.50
2022-10-20T03:26:12.020Z,22.40
2022-10-20T03:28:40.264Z,23.05
2022-10-20T03:31:08.313Z,21.73
2022-10-20T03:33:35.992Z,23.65
2022-10-20T03:36:03.883Z,23.50
2022-10-20T03:38:31.404Z,21.80
2022-10-20T03:40:59.030Z,21.63
2022-10-20T03:43:26.753Z,22.90
2022-10-20T03:46:02.424Z,22.63
2022-10-20T03:48:30.086Z,21.30
2022-10-20T03:50:57.751Z,21.75
2022-10-20T03:53:25.283Z,21.10
2022-10-20T03:55:52.922Z,21.17
2022-10-20T03:58:20.548Z,21.77
2022-10-20T04:00:48.456Z,23.20
2022-10-20T04:03:16.058Z,21.38
2022-10-20T04:05:43.565Z,22.25
2022-10-20T04:08:11.147Z,21.77
2022-10-20T04:10:38.745Z,21.55
2022-10-20T04:13:06.293Z,21.75
2022-10-20T04:15:33.885Z,21.35
2022-10-20T04:18:01.414Z,22.60
2022-10-20T04:20:28.941Z,21.75
2022-10-20T04:22:56.733Z,21.45
2022-10-20T04:25:24.262Z,20.98
2022-10-20T04:27:51.773Z,20.60
2022-10-20T04:30:19.411Z,21.63
2022-10-20T04:32:46.923Z,21.35
2022-10-20T04:35:14.482Z,21.60
2022-10-20T04:37:42.005Z,20.40
2022-10-20T04:40:10.192Z,20.67
2022-10-20T04:42:37.733Z,22.02
2022-10-20T04:45:05.433Z,21.30
2022-10-20T04:47:34.348Z,21.85
2022-10-20T04:50:02.110Z,21.13
2022-10-20T04:52:29.915Z,21.67
2022-10-20T04:54:57.481Z,21.48
2022-10-20T04:57:25.149Z,20.50
2022-10-20T04:59:52.685Z,21.13
2022-10-20T05:02:20.226Z,21.17
2022-10-20T05:04:47.721Z,20.50
2022-10-20T05:07:15.283Z,21.40
2022-10-20T05:09:42.786Z,21.27
2022-10-20T05:12:10.404Z,22.80
2022-10-20T05:14:37.942Z,23.10
2022-10-20T05:17:07.900Z,23.50
2022-10-20T05:19:37.517Z,22.52
2022-10-20T05:22:05.038Z,22.48
2022-10-20T05:24:32.572Z,21.58
2022-10-20T05:27:00.087Z,22.90
2022-10-20T05:29:27.630Z,22.13
2022-10-20T05:31:55.284Z,22.88
2022-10-20T05:34:22.784Z,21.98
2022-10-20T05:36:50.348Z,21.45
2022-10-20T05:39:17.854Z,22.77
2022-10-20T05:41:45.396Z,22.80
2022-10-20T05:44:13.278Z,20.75
2022-10-20T05:46:42.465Z,22.17
2022-10-20T05:49:15.807Z,21.17
2022-10-20T05:51:44.155Z,21.23
2022-10-20T05:54:12.605Z,20.50
2022-10-20T05:56:40.440Z,20.98
2022-10-20T05:59:08.496Z,22.02
2022-10-20T06:01:41.190Z,22.15
2022-10-20T06:04:08.979Z,20.23
2022-10-20T06:06:36.573Z,20.80
2022-10-20T06:09:06.242Z,20.50
2022-10-20T06:11:38.411Z,20.27
2022-10-20T06:14:07.321Z,20.50
2022-10-20T06:16:35.093Z,20.55
2022-10-20T06:19:02.699Z,20.90
2022-10-20T06:21:31.812Z,20.15
2022-10-20T06:24:04.661Z,20.30
2022-10-20T06:26:33.061Z,19.92
2022-10-20T06:29:04.700Z,19.63
2022-10-20T06:31:33.925Z,19.98
2022-10-20T06:34:01.983Z,19.08
2022-10-20T06:36:29.703Z,20.63
2022-10-20T06:39:00.506Z,18.95
2022-10-20T06:41:31.387Z,20.67
2022-10-20T06:43:59.905Z,19.98
2022-10-20T06:46:28.760Z,19.85
2022-10-20T06:48:58.778Z,20.08
2022-10-20T06:51:31.749Z,18.98
2022-10-20T06:54:00.205Z,19.73
2022-10-20T06:56:29.176Z,20.08
2022-10-20T06:58:57.650Z,18.98
2022-10-20T07:01:29.057Z,19.52
2022-10-20T07:04:01.194Z,19.13
2022-10-20T07:06:30.549Z,17.98
2022-10-20T07:08:58.712Z,19.73
2022-10-20T07:11:27.862Z,18.80
2022-10-20T07:13:55.967Z,18.38
2022-10-20T07:16:25.508Z,18.38
2022-10-20T07:18:53.201Z,17.98
2022-10-20T07:21:22.538Z,18.33
2022-10-20T07:23:51.207Z,19.70
2022-10-20T07:26:20.247Z,19.42
2022-10-20T07:28:53.343Z,19.90
2022-10-20T07:31:27.313Z,18.48
2022-10-20T07:34:06.959Z,17.92
2022-10-20T07:36:43.207Z,17.50
2022-10-20T07:39:11.908Z,19.13
2022-10-20T07:41:40.043Z,16.60
2022-10-20T07:44:07.879Z,18.45
2022-10-20T07:46:36.366Z,17.23
2022-10-20T07:49:31.408Z,16.85
2022-10-20T07:51:52.023Z,17.55
2022-10-20T07:54:19.604Z,15.35
2022-10-20T07:56:47.195Z,16.05
2022-10-20T07:59:14.818Z,16.58
2022-10-20T08:01:42.843Z,16.20
2022-10-20T08:04:10.597Z,16.08
2022-10-20T08:06:39.225Z,15.48
2022-10-20T08:09:07.384Z,15.80
2022-10-20T08:11:35.650Z,15.23
2022-10-20T08:14:03.326Z,15.32
2022-10-20T08:16:32.437Z,15.35
2022-10-20T08:19:10.331Z,15.32
2022-10-20T08:21:38.085Z,15.20
2022-10-20T08:24:06.136Z,14.23
2022-10-20T08:26:33.894Z,14.52
2022-10-20T08:29:02.717Z,14.75
2022-10-20T08:31:30.444Z,14.52
2022-10-20T08:33:59.898Z,14.73
2022-10-20T08:36:30.508Z,14.48
2022-10-20T08:39:05.073Z,14.68
2022-10-20T08:41:55.267Z,14.60
2022-10-20T08:44:27.983Z,14.98
2022-10-20T08:46:55.914Z,14.85
2022-10-20T08:49:28.641Z,13.38
2022-10-20T08:51:56.246Z,13.85
2022-10-20T08:54:23.906Z,13.68
2022-10-20T08:56:51.522Z,12.80
2022-10-20T08:59:25.368Z,12.98
2022-10-20T09:01:53.272Z,12.55
2022-10-20T09:04:36.035Z,11.90
2022-10-20T09:07:05.723Z,11.65
2022-10-20T09:09:37.028Z,11.75
2022-10-20T09:12:07.143Z,11.57
2022-10-20T09:14:36.901Z,11.77
2022-10-20T09:17:07.974Z,11.38
2022-10-20T09:19:36.996Z,11.93
2022-10-20T09:22:06.674Z,11.85
2022-10-20T09:24:35.986Z,11.48
2022-10-20T09:27:22.299Z,11.95
2022-10-20T09:29:50.182Z,11.90
2022-10-20T09:32:46.899Z,12.13
2022-10-20T09:35:29.375Z,11.98
2022-10-20T09:38:18.297Z,10.85
2022-10-20T09:40:54.537Z,11.98
2022-10-20T09:43:22.535Z,11.68
2022-10-20T09:45:57.303Z,10.50
2022-10-20T09:48:29.994Z,11.48
2022-10-20T09:50:59.197Z,10.48
2022-10-20T09:53:41.079Z,10.27
2022-10-20T09:56:09.782Z,10.55
2022-10-20T09:58:38.798Z,9.95
2022-10-20T10:01:17.155Z,10.48
2022-10-20T10:03:46.360Z,9.73
2022-10-20T10:06:37.415Z,9.23
2022-10-20T10:12:04.007Z,9.07
2022-10-20T10:14:35.697Z,9.55
2022-10-20T10:17:03.509Z,8.88
2022-10-20T10:19:32.597Z,8.52
2022-10-20T10:22:02.185Z,8.93
2022-10-20T10:24:47.052Z,7.95
2022-10-20T10:27:31.436Z,7.90
2022-10-20T10:30:17.458Z,8.38
2022-10-20T10:32:45.764Z,7.85
2022-10-20T10:35:25.373Z,8.38
2022-10-20T10:37:53.197Z,8.02
2022-10-20T10:40:24.138Z,8.35
2022-10-20T10:42:54.633Z,7.17
2022-10-20T10:45:40.402Z,7.10
2022-10-20T10:48:26.715Z,7.78
2022-10-20T10:50:57.762Z,7.28
2022-10-20T10:53:25.311Z,6.90
2022-10-20T10:56:12.113Z,7.22
2022-10-20T10:58:46.254Z,7.45
2022-10-20T11:01:24.691Z,6.68
2022-10-20T11:04:10.784Z,6.75
2022-10-20T11:06:38.305Z,6.05
2022-10-20T11:09:11.785Z,5.65
2022-10-20T11:11:58.670Z,5.82
2022-10-20T11:14:38.906Z,6.15
2022-10-20T11:17:09.396Z,6.57
2022-10-20T11:19:47.747Z,6.03
2022-10-20T11:22:21.116Z,5.50
2022-10-20T11:24:55.667Z,6.05
2022-10-20T11:27:25.800Z,5.93
2022-10-20T11:29:57.697Z,5.32
2022-10-20T11:32:29.213Z,5.38
2022-10-20T11:35:02.598Z,5.40
2022-10-20T11:37:43.318Z,5.80
2022-10-20T11:40:10.890Z,5.30
2022-10-20T11:42:38.757Z,4.75
2022-10-20T11:45:22.764Z,5.20
2022-10-20T11:47:51.603Z,5.50
2022-10-20T11:50:19.474Z,4.90
2022-10-20T11:53:08.323Z,5.40
2022-10-20T11:55:54.180Z,5.32
2022-10-20T11:58:24.466Z,4.95
2022-10-20T12:00:53.223Z,4.95
2022-10-20T12:03:34.837Z,5.05
2022-10-20T12:06:06.303Z,4.63
2022-10-20T12:08:50.748Z,4.85
2022-10-20T12:11:18.620Z,4.63
2022-10-20T12:13:46.144Z,4.53
2022-10-20T12:16:13.722Z,4.65
2022-10-20T12:21:52.485Z,4.38
2022-10-20T12:24:37.512Z,4.30
2022-10-20T12:27:08.195Z,4.85
2022-10-20T12:29:35.729Z,4.70
2022-10-20T12:32:24.108Z,4.50
2022-10-20T12:34:53.278Z,4.85
2022-10-20T12:37:28.816Z,5.05
2022-10-20T12:39:57.763Z,4.90
2022-10-20T12:42:32.507Z,4.72
2022-10-20T12:45:03.012Z,4.60
2022-10-20T12:47:31.924Z,4.45
2022-10-20T12:50:02.795Z,5.13
2022-10-20T12:52:32.468Z,4.85
2022-10-20T12:55:23.306Z,4.18
2022-10-20T12:58:10.142Z,4.72
2022-10-20T13:00:37.729Z,6.30
2022-10-20T13:03:26.182Z,4.93
2022-10-20T13:05:53.761Z,4.65
2022-10-20T13:08:21.383Z,4.50
2022-10-20T13:10:49.502Z,4.18
2022-10-20T13:13:19.843Z,4.80
2022-10-20T13:15:49.017Z,6.00
2022-10-20T13:18:19.935Z,4.70
2022-10-20T13:20:47.506Z,4.10
2022-10-20T13:23:16.418Z,4.13
2022-10-20T13:25:49.209Z,3.97
2022-10-20T13:28:19.625Z,4.57
2022-10-20T13:30:53.194Z,4.63
2022-10-20T13:36:53.720Z,4.80
2022-10-20T13:39:36.401Z,4.60
2022-10-20T13:42:16.920Z,4.70
2022-10-20T13:44:44.409Z,4.90
2022-10-20T13:47:30.759Z,5.53
2022-10-20T13:50:11.732Z,4.85
2022-10-20T13:52:41.889Z,5.30
2022-10-20T13:55:15.951Z,5.55
2022-10-20T13:57:55.268Z,4.55
2022-10-20T14:00:30.912Z,5.20
2022-10-20T14:02:59.992Z,5.00
2022-10-20T14:05:29.025Z,5.40
2022-10-20T14:07:57.065Z,5.30
2022-10-20T14:10:28.631Z,6.35
2022-10-20T14:12:56.535Z,5.80
2022-10-20T14:15:28.378Z,5.20
2022-10-20T14:20:23.573Z,5.20
2022-10-20T14:22:53.631Z,5.78
2022-10-20T14:25:22.053Z,5.53
2022-10-20T14:27:51.399Z,6.05
2022-10-20T14:30:19.408Z,9.00
2022-10-20T14:32:47.836Z,7.00
2022-10-20T14:35:38.448Z,5.85
2022-10-20T14:38:09.674Z,5.93
2022-10-20T14:40:39.306Z,6.35
2022-10-20T14:43:07.959Z,5.90
2022-10-20T14:45:35.554Z,6.93
2022-10-20T14:48:03.182Z,5.60
2022-10-20T14:50:36.259Z,5.93
2022-10-20T14:53:22.508Z,5.85
2022-10-20T14:55:50.058Z,6.18
2022-10-20T14:58:37.410Z,6.10
2022-10-20T15:01:14.717Z,6.68
2022-10-20T15:03:42.589Z,6.43
2022-10-20T15:06:15.221Z,6.18
2022-10-20T15:08:57.634Z,6.53
2022-10-20T15:11:26.683Z,6.20
2022-10-20T15:13:55.914Z,6.32
2022-10-20T15:16:35.587Z,6.28
2022-10-20T15:19:13.306Z,5.80
2022-10-20T15:21:40.808Z,6.68
2022-10-20T15:24:08.301Z,6.22
2022-10-20T15:26:35.837Z,6.68
2022-10-20T15:29:04.203Z,6.07
2022-10-20T15:31:31.788Z,6.50
2022-10-20T15:33:59.426Z,7.05
2022-10-20T15:36:29.453Z,6.40
2022-10-20T15:38:57.507Z,6.47
2022-10-20T15:41:26.186Z,6.75
2022-10-20T15:43:53.745Z,6.63
2022-10-20T15:46:21.466Z,6.18
2022-10-20T15:48:49.119Z,6.28
2022-10-20T15:51:24.745Z,7.25
2022-10-20T15:53:52.278Z,6.78
2022-10-20T15:56:20.104Z,6.47
2022-10-20T15:58:49.855Z,6.35
2022-10-20T16:01:17.895Z,6.32
2022-10-20T16:03:46.166Z,6.85
2022-10-20T16:06:14.326Z,6.55
2022-10-20T16:08:45.639Z,7.03
2022-10-20T16:11:13.776Z,6.78
2022-10-20T16:13:41.373Z,6.30
2022-10-20T16:16:09.786Z,7.65
2022-10-20T16:18:37.304Z,7.05
2022-10-20T16:21:05.217Z,6.63
2022-10-20T16:23:32.943Z,7.20
2022-10-20T16:26:00.495Z,7.95
2022-10-20T16:28:27.989Z,7.70
2022-10-20T16:31:05.277Z,7.05
2022-10-20T16:33:33.044Z,6.72
2022-10-20T16:36:02.146Z,7.50
2022-10-20T16:38:29.763Z,7.13
2022-10-20T16:40:58.459Z,7.15
2022-10-20T16:43:26.004Z,7.50
2022-10-20T16:45:53.572Z,6.82
2022-10-20T16:48:21.347Z,6.90
2022-10-20T16:50:49.194Z,7.43
2022-10-20T16:53:17.250Z,6.82
2022-10-20T16:55:55.087Z,6.85
2022-10-20T16:58:23.222Z,6.55
2022-10-20T17:01:17.247Z,6.40
2022-10-20T17:03:46.044Z,6.93
2022-10-20T17:06:13.937Z,6.55
2022-10-20T17:08:41.534Z,6.28
2022-10-20T17:11:10.251Z,6.55
2022-10-20T17:13:39.181Z,7.05
2022-10-20T17:16:10.829Z,6.55
2022-10-20T17:18:38.672Z,5.93
2022-10-20T17:21:06.767Z,5.88
2022-10-20T17:23:37.388Z,6.95
2022-10-20T17:26:08.316Z,6.25
2022-10-20T17:28:37.106Z,6.93
2022-10-20T17:31:09.206Z,55.35
2022-10-20T17:33:37.488Z,35.78
2022-10-20T17:36:05.232Z,8.25
2022-10-20T17:38:33.220Z,11.95
2022-10-20T17:41:05.163Z,25.10
2022-10-20T17:46:01.322Z,8.43
2022-10-20T17:48:29.282Z,6.50
2022-10-20T17:51:10.830Z,7.10
2022-10-20T17:53:39.476Z,6.45
2022-10-20T17:56:09.043Z,6.78
2022-10-20T17:58:36.618Z,5.93
2022-10-20T18:01:18.717Z,7.00
2022-10-20T18:03:47.085Z,6.82
2022-10-20T18:06:18.997Z,7.03
2022-10-20T18:11:15.498Z,7.32
2022-10-20T18:13:43.067Z,6.80
2022-10-20T18:16:12.030Z,7.45
2022-10-20T18:18:40.128Z,6.35
2022-10-20T18:21:08.758Z,6.75
2022-10-20T18:23:36.909Z,6.22
2022-10-20T18:26:06.624Z,6.75
2022-10-20T18:28:34.444Z,6.88
2022-10-20T18:31:12.132Z,7.13
2022-10-20T18:33:41.402Z,6.78
2022-10-20T18:36:10.219Z,6.93
2022-10-20T18:38:39.348Z,7.38
2022-10-20T18:41:11.338Z,6.47
2022-10-20T18:43:39.037Z,6.60
2022-10-20T18:46:07.141Z,7.05
2022-10-20T18:48:37.081Z,6.85
2022-10-20T18:51:05.631Z,7.30
2022-10-20T18:56:17.888Z,6.72
2022-10-20T18:58:52.097Z,6.45
2022-10-20T19:01:23.144Z,7.18
2022-10-20T19:03:51.459Z,6.90
2022-10-20T19:06:23.649Z,6.63
2022-10-20T19:08:55.317Z,7.07
2022-10-20T19:11:24.181Z,7.60
2022-10-20T19:13:52.095Z,6.53
2022-10-20T19:16:21.867Z,7.45
2022-10-20T19:21:33.539Z,11.93
2022-10-20T19:24:02.981Z,37.58
2022-10-20T19:26:31.952Z,17.27
2022-10-20T19:29:04.494Z,7.40
2022-10-20T19:31:36.602Z,7.07
2022-10-20T19:34:12.124Z,7.40
2022-10-20T19:36:40.508Z,17.52
2022-10-20T19:39:09.173Z,53.13
2022-10-20T19:41:36.811Z,8.88
2022-10-20T19:44:04.751Z,7.13
2022-10-20T19:46:33.206Z,25.10
2022-10-20T19:49:01.108Z,73.63
2022-10-20T19:51:28.790Z,180.52
2022-10-20T19:53:56.363Z,9.50
2022-10-20T19:56:24.115Z,7.13
2022-10-20T19:58:51.647Z,12.10
2022-10-20T20:01:19.358Z,10.43
2022-10-20T20:03:47.292Z,10.45
2022-10-20T20:06:16.486Z,11.00
2022-10-20T20:08:45.034Z,10.77
2022-10-20T20:11:21.162Z,9.95
2022-10-20T20:13:48.823Z,9.23
2022-10-20T20:16:16.407Z,7.15
2022-10-20T20:18:43.960Z,6.70
2022-10-20T20:21:11.566Z,6.82
2022-10-20T20:23:58.379Z,7.80
2022-10-20T20:26:27.243Z,7.88
2022-10-20T20:28:55.372Z,7.88
2022-10-20T20:31:23.872Z,7.97
2022-10-20T20:33:52.549Z,10.25
2022-10-20T20:36:20.764Z,11.38
2022-10-20T20:38:48.517Z,17.63
2022-10-20T20:41:17.817Z,20.08
2022-10-20T20:43:45.906Z,25.17
2022-10-20T20:46:17.598Z,18.73
2022-10-20T20:51:28.815Z,17.67
2022-10-20T20:53:56.598Z,16.15
2022-10-20T20:56:26.804Z,18.30
2022-10-20T20:58:55.524Z,16.20
2022-10-20T21:01:27.223Z,16.65
2022-10-20T21:03:56.013Z,14.88
2022-10-20T21:06:33.371Z,14.50
2022-10-20T21:09:01.934Z,15.10
2022-10-20T21:11:29.623Z,13.15
2022-10-20T21:13:58.861Z,12.23
2022-10-20T21:16:30.692Z,13.38
2022-10-20T21:18:59.673Z,13.05
2022-10-20T21:21:28.573Z,12.25
2022-10-20T21:23:57.153Z,11.38
2022-10-20T21:26:25.174Z,10.38
2022-10-20T21:28:53.137Z,8.85
2022-10-20T21:31:23.130Z,9.40
2022-10-20T21:33:51.273Z,9.70
2022-10-20T21:36:19.621Z,10.82
2022-10-20T21:38:47.396Z,8.93
2022-10-20T21:41:16.629Z,8.85
2022-10-20T21:43:45.210Z,8.93
2022-10-20T21:46:14.020Z,8.00
2022-10-20T21:48:41.846Z,8.60
2022-10-20T21:51:10.933Z,8.68
2022-10-20T21:53:38.844Z,8.25
2022-10-20T21:56:07.356Z,8.10
2022-10-20T21:58:36.164Z,8.18
2022-10-20T22:01:17.556Z,8.40
2022-10-20T22:03:45.990Z,8.45
2022-10-20T22:06:14.395Z,7.65
2022-10-20T22:08:43.525Z,8.32
2022-10-20T22:11:12.955Z,7.80
2022-10-20T22:13:41.404Z,8.00
2022-10-20T22:16:10.429Z,8.27
2022-10-20T22:18:38.024Z,7.97
2022-10-20T22:21:11.132Z,6.93
2022-10-20T22:23:42.583Z,8.32
2022-10-20T22:26:10.783Z,8.10
2022-10-20T22:28:38.903Z,7.63
2022-10-20T22:31:06.983Z,7.57
2022-10-20T22:33:34.862Z,8.10
2022-10-20T22:36:02.914Z,7.53
2022-10-20T22:38:30.506Z,8.18
2022-10-20T22:41:02.760Z,7.63
2022-10-20T22:43:31.908Z,7.28
2022-10-20T22:45:59.686Z,7.95
2022-10-20T22:48:27.439Z,8.70
2022-10-20T22:50:54.999Z,8.25
2022-10-20T22:53:24.176Z,8.52
2022-10-20T22:55:53.186Z,8.02
2022-10-20T22:58:24.083Z,7.55
2022-10-20T23:00:51.925Z,8.20
2022-10-20T23:03:19.849Z,8.38
2022-10-20T23:05:47.439Z,9.13
2022-10-20T23:08:15.079Z,7.65
2022-10-20T23:10:42.791Z,8.30
2022-10-20T23:13:10.337Z,8.35
2022-10-20T23:15:38.013Z,8.48
2022-10-20T23:18:06.570Z,8.25
2022-10-20T23:20:34.268Z,7.93
2022-10-20T23:23:01.928Z,8.27
2022-10-20T23:25:29.593Z,8.00
2022-10-20T23:27:57.276Z,8.10
2022-10-20T23:30:24.942Z,7.90
2022-10-20T23:32:52.515Z,8.38
2022-10-20T23:35:20.221Z,8.20
2022-10-20T23:37:47.896Z,8.32
2022-10-20T23:40:15.653Z,8.13
2022-10-20T23:42:43.662Z,8.63
2022-10-20T23:45:11.538Z,8.30
2022-10-20T23:47:39.755Z,7.95
2022-10-20T23:50:07.799Z,8.75
2022-10-20T23:52:35.576Z,7.50
2022-10-20T23:55:03.282Z,7.78
2022-10-20T23:57:31.195Z,7.88
2022-10-20T23:59:58.854Z,8.00
